createdAt,value
2018-01-15T00:02:24.176Z,11.00
2018-01-15T00:08:28.200Z,12.57
2018-01-15T00:14:31.781Z,11.40
2018-01-15T00:20:35.246Z,11.60
2018-01-15T00:26:38.729Z,11.00
2018-01-15T00:32:42.962Z,10.97
2018-01-15T00:38:46.450Z,9.80
2018-01-15T00:44:49.955Z,11.30
2018-01-15T00:50:53.417Z,12.20
2018-01-15T00:56:56.906Z,11.87
2018-01-15T01:03:01.447Z,12.23
2018-01-15T01:09:05.127Z,11.47
2018-01-15T01:15:08.597Z,12.07
2018-01-15T01:21:13.646Z,13.90
2018-01-15T01:27:17.275Z,11.97
2018-01-15T01:33:20.713Z,12.40
2018-01-15T01:39:25.017Z,12.40
2018-01-15T01:45:28.622Z,13.07
2018-01-15T01:51:32.107Z,13.87
2018-01-15T01:57:35.592Z,11.07
2018-01-15T02:03:39.069Z,12.30
2018-01-15T02:09:42.696Z,11.23
2018-01-15T02:15:46.176Z,11.70
2018-01-15T02:21:49.658Z,12.30
2018-01-15T02:27:53.987Z,12.93
2018-01-15T02:33:57.682Z,12.07
2018-01-15T02:40:01.985Z,12.00
2018-01-15T02:46:05.458Z,12.00
2018-01-15T02:52:08.970Z,12.37
2018-01-15T02:58:13.217Z,13.10
2018-01-15T03:04:16.722Z,12.33
2018-01-15T03:10:20.181Z,12.03
2018-01-15T03:16:24.154Z,13.17
2018-01-15T03:22:27.916Z,12.40
2018-01-15T03:28:31.577Z,13.03
2018-01-15T03:34:35.359Z,12.57
2018-01-15T03:40:38.910Z,12.00
2018-01-15T03:46:42.389Z,12.40
2018-01-15T03:52:45.867Z,12.83
2018-01-15T03:58:49.318Z,13.20
2018-01-15T04:04:53.061Z,12.43
2018-01-15T04:10:57.537Z,12.10
2018-01-15T04:17:01.787Z,11.87
2018-01-15T04:23:05.250Z,12.87
2018-01-15T04:29:08.741Z,12.00
2018-01-15T04:35:12.240Z,11.97
2018-01-15T04:41:15.704Z,12.00
2018-01-15T04:47:19.277Z,12.47
2018-01-15T04:53:23.634Z,12.17
2018-01-15T04:59:27.254Z,12.13
2018-01-15T05:05:30.769Z,11.87
2018-01-15T05:11:35.135Z,11.97
2018-01-15T05:17:39.481Z,12.40
2018-01-15T05:23:42.950Z,12.03
2018-01-15T05:29:46.464Z,12.50
2018-01-15T05:35:50.066Z,12.73
2018-01-15T05:41:53.840Z,12.27
2018-01-15T05:47:57.555Z,13.10
2018-01-15T05:54:01.162Z,13.43
2018-01-15T06:00:04.687Z,12.17
2018-01-15T06:06:08.980Z,13.00
2018-01-15T06:12:12.551Z,14.73
2018-01-15T06:18:16.053Z,13.23
2018-01-15T06:24:19.576Z,13.10
2018-01-15T06:30:23.976Z,12.60
2018-01-15T06:36:27.525Z,14.00
2018-01-15T06:42:31.079Z,13.03
2018-01-15T06:48:34.574Z,12.10
2018-01-15T06:54:38.042Z,12.97
2018-01-15T07:00:42.481Z,11.57
2018-01-15T07:06:45.949Z,13.23
2018-01-15T07:12:49.554Z,13.73
2018-01-15T07:18:53.058Z,11.73
2018-01-15T07:24:56.886Z,13.40
2018-01-15T07:31:00.432Z,13.07
2018-01-15T07:37:03.912Z,13.00
2018-01-15T07:43:07.387Z,13.37
2018-01-15T07:49:11.159Z,19.50
2018-01-15T07:55:15.392Z,12.53
2018-01-15T08:01:18.882Z,14.53
2018-01-15T08:07:23.188Z,12.70
2018-01-15T08:13:27.115Z,15.80
2018-01-15T08:19:30.590Z,16.07
2018-01-15T08:25:34.881Z,13.00
2018-01-15T08:31:38.517Z,21.87
2018-01-15T08:37:42.823Z,14.20
2018-01-15T08:43:46.479Z,13.73
2018-01-15T08:49:49.937Z,13.40
2018-01-15T08:55:53.427Z,14.90
2018-01-15T09:01:56.987Z,16.90
2018-01-15T09:08:00.654Z,18.10
2018-01-15T09:14:05.208Z,16.20
2018-01-15T09:20:09.525Z,22.00
2018-01-15T09:26:13.019Z,22.80
2018-01-15T09:32:16.509Z,19.53
2018-01-15T09:38:19.992Z,27.77
2018-01-15T09:44:23.607Z,17.47
2018-01-15T09:50:27.127Z,20.13
2018-01-15T09:56:30.673Z,16.47
2018-01-15T10:02:34.152Z,16.80
2018-01-15T10:08:37.654Z,16.27
2018-01-15T10:14:41.981Z,18.30
2018-01-15T10:20:45.450Z,16.40
2018-01-15T10:26:48.981Z,15.77
2018-01-15T10:32:52.462Z,15.43
2018-01-15T10:38:56.374Z,13.87
2018-01-15T10:45:00.151Z,15.67
2018-01-15T10:51:03.755Z,15.80
2018-01-15T10:57:07.269Z,16.50
2018-01-15T11:03:10.792Z,16.40
2018-01-15T11:09:14.276Z,13.97
2018-01-15T11:15:17.871Z,17.37
2018-01-15T11:21:21.473Z,17.73
2018-01-15T11:27:25.294Z,65.23
2018-01-15T11:33:28.857Z,37.20
2018-01-15T11:39:33.085Z,17.83
2018-01-15T11:45:36.615Z,20.50
2018-01-15T11:51:40.095Z,19.17
2018-01-15T11:57:43.586Z,18.03
2018-01-15T12:03:47.837Z,18.13
2018-01-15T12:09:51.286Z,17.47
2018-01-15T12:15:54.757Z,19.13
2018-01-15T12:21:59.232Z,17.30
2018-01-15T12:28:02.779Z,16.43
2018-01-15T12:34:06.372Z,17.60
2018-01-15T12:40:09.991Z,16.90
2018-01-15T12:46:13.468Z,17.10
2018-01-15T12:52:17.733Z,16.50
2018-01-15T12:58:21.945Z,16.67
2018-01-15T13:04:25.430Z,15.43
2018-01-15T13:10:29.328Z,15.30
2018-01-15T13:16:32.848Z,17.27
2018-01-15T13:22:36.348Z,15.03
2018-01-15T13:28:40.100Z,15.77
2018-01-15T13:34:44.346Z,16.20
2018-01-15T13:40:48.617Z,17.30
2018-01-15T13:46:52.149Z,17.00
2018-01-15T13:52:55.839Z,16.50
2018-01-15T13:58:59.391Z,15.30
2018-01-15T14:05:02.876Z,17.47
2018-01-15T14:11:06.570Z,17.80
2018-01-15T14:17:10.029Z,17.73
2018-01-15T14:23:13.492Z,14.97
2018-01-15T14:29:18.178Z,17.07
2018-01-15T14:35:21.645Z,16.80
2018-01-15T14:41:25.613Z,17.27
2018-01-15T14:47:29.223Z,16.00
2018-01-15T14:53:32.767Z,17.70
2018-01-15T14:59:36.227Z,17.67
2018-01-15T15:05:40.480Z,16.93
2018-01-15T15:11:43.937Z,17.43
2018-01-15T15:17:47.414Z,16.70
2018-01-15T15:23:50.895Z,16.93
2018-01-15T15:29:55.355Z,20.30
2018-01-15T15:35:59.092Z,16.17
2018-01-15T15:42:02.647Z,17.17
2018-01-15T15:48:06.296Z,19.60
2018-01-15T15:54:09.825Z,17.87
2018-01-15T16:00:14.194Z,16.83
2018-01-15T16:06:18.477Z,18.17
2018-01-15T16:12:21.948Z,17.77
2018-01-15T16:18:26.277Z,19.80
2018-01-15T16:24:30.635Z,17.87
2018-01-15T16:30:34.436Z,26.57
2018-01-15T16:36:37.949Z,15.70
2018-01-15T16:42:41.426Z,18.10
2018-01-15T16:48:44.929Z,15.40
2018-01-15T16:54:48.442Z,16.50
2018-01-15T17:00:52.682Z,17.20
2018-01-15T17:06:56.198Z,15.67
2018-01-15T17:13:00.595Z,17.83
2018-01-15T17:19:04.059Z,18.10
2018-01-15T17:25:07.679Z,16.73
2018-01-15T17:31:11.201Z,17.23
2018-01-15T17:37:14.761Z,17.37
2018-01-15T17:43:19.045Z,15.13
2018-01-15T17:49:24.095Z,14.20
2018-01-15T17:55:27.667Z,18.73
2018-01-15T18:01:31.223Z,17.20
2018-01-15T18:07:34.713Z,15.00
2018-01-15T18:13:38.248Z,15.70
2018-01-15T18:19:42.536Z,16.90
2018-01-15T18:25:47.006Z,17.13
2018-01-15T18:31:51.221Z,15.60
2018-01-15T18:37:54.826Z,18.60
2018-01-15T18:43:59.113Z,17.80
2018-01-15T18:50:02.583Z,13.93
2018-01-15T18:56:06.053Z,15.77
2018-01-15T19:02:09.543Z,17.93
2018-01-15T19:08:13.018Z,21.97
2018-01-15T19:14:17.260Z,17.50
2018-01-15T19:20:20.759Z,17.97
2018-01-15T19:26:24.264Z,17.30
2018-01-15T19:32:27.741Z,19.13
2018-01-15T19:38:33.246Z,17.03
2018-01-15T19:44:42.983Z,16.47
2018-01-15T19:57:27.177Z,17.30
2018-01-15T20:03:36.088Z,16.77
2018-01-15T20:09:45.830Z,16.73
2018-01-15T20:15:49.292Z,17.53
2018-01-15T20:21:53.024Z,17.10
2018-01-15T20:27:57.945Z,15.47
2018-01-15T20:34:01.416Z,15.60
2018-01-15T20:40:04.908Z,17.07
2018-01-15T20:46:08.440Z,14.13
2018-01-15T20:52:11.909Z,12.70
2018-01-15T20:58:16.290Z,13.30
2018-01-15T21:04:20.771Z,11.27
2018-01-15T21:10:25.416Z,9.87
2018-01-15T21:16:29.007Z,9.57
2018-01-15T21:22:32.447Z,8.57
2018-01-15T21:28:35.947Z,9.30
2018-01-15T21:34:39.428Z,8.60
2018-01-15T21:40:42.885Z,8.57
2018-01-15T21:46:46.490Z,7.37
2018-01-15T21:52:50.063Z,7.10
2018-01-15T21:58:54.996Z,5.80
2018-01-15T22:04:58.555Z,6.43
2018-01-15T22:11:01.987Z,6.70
2018-01-15T22:17:05.806Z,5.77
2018-01-15T22:23:09.591Z,4.70
2018-01-15T22:29:13.109Z,4.77
2018-01-15T22:35:16.643Z,3.17
2018-01-15T22:41:20.135Z,2.70
2018-01-15T22:47:23.700Z,2.50
2018-01-15T22:53:28.027Z,2.60
2018-01-15T22:59:31.559Z,2.60
2018-01-15T23:05:35.005Z,2.37
2018-01-15T23:11:38.444Z,1.97
2018-01-15T23:17:42.694Z,2.43
2018-01-15T23:23:46.145Z,2.80
2018-01-15T23:29:49.609Z,1.90
2018-01-15T23:35:54.094Z,2.30
2018-01-15T23:41:57.957Z,1.90
2018-01-15T23:48:02.265Z,1.60
2018-01-15T23:54:05.823Z,1.90
